createdAt,value
2023-04-02T04:02:44.990Z,75.98
2023-04-02T04:06:52.347Z,75.96
2023-04-02T04:10:58.716Z,76.57
2023-04-02T04:15:07.648Z,75.45
2023-04-02T04:19:18.173Z,75.34
2023-04-02T04:23:31.243Z,75.85
2023-04-02T04:27:44.752Z,75.93
2023-04-02T04:31:49.751Z,75.95
2023-04-02T04:35:59.778Z,74.71
2023-04-02T04:40:17.299Z,75.14
2023-04-02T04:44:24.105Z,74.97
2023-04-02T04:48:37.306Z,73.86
2023-04-02T04:52:44.175Z,73.55
2023-04-02T04:56:52.186Z,73.48
2023-04-02T05:01:03.361Z,72.75
2023-04-02T05:05:18.898Z,73.25
2023-04-02T05:09:30.407Z,73.20
2023-04-02T05:13:40.276Z,73.02
2023-04-02T05:17:49.953Z,72.80
2023-04-02T05:21:59.504Z,71.95
2023-04-02T05:26:09.277Z,70.93
2023-04-02T05:30:33.711Z,70.78
2023-04-02T05:34:39.310Z,72.25
2023-04-02T05:38:47.570Z,72.13
2023-04-02T05:42:57.792Z,71.80
2023-04-02T05:47:05.975Z,71.77
2023-04-02T05:51:13.137Z,71.22
2023-04-02T05:55:31.848Z,71.69
2023-04-02T05:59:40.509Z,71.82
2023-04-02T06:03:51.318Z,71.57
2023-04-02T06:07:59.745Z,71.70
2023-04-02T06:12:13.502Z,72.06
2023-04-02T06:16:18.328Z,71.95
2023-04-02T06:20:21.863Z,71.49
2023-04-02T06:24:27.079Z,71.24
2023-04-02T06:28:37.096Z,71.41
2023-04-02T06:32:41.373Z,71.85
2023-04-02T06:36:48.139Z,72.22
2023-04-02T06:40:53.931Z,70.79
2023-04-02T06:45:06.074Z,70.63
2023-04-02T06:49:34.288Z,70.86
2023-04-02T06:53:43.083Z,71.44
2023-04-02T06:57:49.338Z,71.74
2023-04-02T07:01:57.217Z,71.11
2023-04-02T07:06:03.578Z,70.57
2023-04-02T07:10:09.140Z,69.08
2023-04-02T07:14:13.395Z,69.47
2023-04-02T07:18:24.480Z,69.49
2023-04-02T07:22:28.449Z,70.48
2023-04-02T07:26:34.729Z,70.47
2023-04-02T07:30:37.385Z,70.53
2023-04-02T07:34:40.616Z,69.92
2023-04-02T07:38:44.838Z,69.52
2023-04-02T07:42:47.640Z,69.20
2023-04-02T07:46:50.326Z,70.25
2023-04-02T07:50:52.927Z,69.71
2023-04-02T07:54:56.720Z,70.59
2023-04-02T07:58:59.216Z,70.83
2023-04-02T08:03:01.756Z,69.63
2023-04-02T08:07:04.456Z,69.47
2023-04-02T08:11:08.899Z,68.12
2023-04-02T08:15:16.018Z,66.72
2023-04-02T08:19:19.516Z,66.76
2023-04-02T08:23:22.448Z,65.56
2023-04-02T08:27:27.219Z,65.75
2023-04-02T08:31:30.261Z,64.44
2023-04-02T08:35:33.218Z,64.36
2023-04-02T08:39:35.749Z,64.34
2023-04-02T08:43:57.275Z,64.46
2023-04-02T08:48:03.290Z,63.41
2023-04-02T08:52:06.086Z,63.50
2023-04-02T08:56:17.508Z,63.15
2023-04-02T09:00:29.123Z,62.66
2023-04-02T09:04:32.804Z,63.07
2023-04-02T09:08:35.711Z,63.23
2023-04-02T09:12:39.613Z,61.66
2023-04-02T09:16:47.346Z,61.61
2023-04-02T09:20:50.381Z,61.72
2023-04-02T09:24:54.003Z,62.59
2023-04-02T09:29:03.278Z,61.92
2023-04-02T09:33:09.275Z,62.31
2023-04-02T09:37:17.260Z,62.06
2023-04-02T09:41:21.080Z,62.35
2023-04-02T09:45:25.652Z,62.01
2023-04-02T09:49:31.769Z,63.37
2023-04-02T09:53:36.895Z,62.10
2023-04-02T09:57:39.453Z,61.50
2023-04-02T10:01:44.601Z,61.76
2023-04-02T10:05:48.718Z,61.38
2023-04-02T10:09:58.890Z,62.04
2023-04-02T10:14:04.717Z,62.92
2023-04-02T10:18:13.873Z,62.67
2023-04-02T10:22:19.791Z,61.24
2023-04-02T10:26:36.956Z,60.75
2023-04-02T10:30:55.533Z,61.33
2023-04-02T10:35:02.736Z,61.53
2023-04-02T10:39:13.497Z,61.77
2023-04-02T10:43:44.740Z,61.13
2023-04-02T10:47:53.128Z,61.38
2023-04-02T10:52:00.796Z,60.61
2023-04-02T10:56:10.908Z,60.99
2023-04-02T11:00:23.328Z,60.58
2023-04-02T11:04:30.320Z,60.14
2023-04-02T11:08:41.170Z,59.83
2023-04-02T11:12:52.640Z,58.57
2023-04-02T11:16:58.768Z,58.65
2023-04-02T11:21:04.029Z,59.02
2023-04-02T11:25:22.962Z,59.88
2023-04-02T11:29:29.135Z,60.19
2023-04-02T11:33:45.497Z,59.29
2023-04-02T11:37:49.592Z,58.84
2023-04-02T11:42:04.953Z,60.46
2023-04-02T11:46:36.262Z,60.22
2023-04-02T11:50:40.903Z,58.75
2023-04-02T11:54:43.727Z,60.28
2023-04-02T11:59:00.998Z,60.13
2023-04-02T12:03:28.369Z,59.95
2023-04-02T12:07:55.927Z,59.54
2023-04-02T12:12:01.384Z,59.58
2023-04-02T12:16:04.294Z,59.47
2023-04-02T12:20:21.754Z,58.62
2023-04-02T12:24:31.091Z,57.42
2023-04-02T12:28:34.576Z,57.19
2023-04-02T12:32:37.004Z,56.86
2023-04-02T12:36:41.334Z,56.97
2023-04-02T12:40:52.709Z,55.62
2023-04-02T12:44:55.419Z,55.23
2023-04-02T12:49:04.921Z,54.69
2023-04-02T12:53:21.363Z,53.80
2023-04-02T12:57:33.471Z,52.40
2023-04-02T13:01:36.137Z,52.57
2023-04-02T13:05:41.373Z,53.26
2023-04-02T13:09:47.860Z,53.23
2023-04-02T13:13:51.144Z,51.62
2023-04-02T13:18:04.751Z,50.44
2023-04-02T13:22:22.116Z,50.53
2023-04-02T13:26:28.241Z,51.46
2023-04-02T13:30:31.101Z,52.89
2023-04-02T13:34:33.900Z,52.37
2023-04-02T13:38:36.432Z,52.51
2023-04-02T13:42:44.116Z,50.16
2023-04-02T13:46:46.769Z,50.66
2023-04-02T13:50:49.251Z,50.76
2023-04-02T13:54:55.519Z,50.54
2023-04-02T13:58:59.431Z,52.02
2023-04-02T14:03:08.360Z,51.43
2023-04-02T14:07:33.462Z,49.90
2023-04-02T14:11:48.537Z,48.32
2023-04-02T14:16:08.717Z,47.80
2023-04-02T14:20:24.470Z,48.79
2023-04-02T14:24:36.868Z,49.73
2023-04-02T14:28:57.334Z,50.00
2023-04-02T14:33:10.439Z,47.74
2023-04-02T14:37:18.850Z,46.62
2023-04-02T14:41:26.561Z,46.66
2023-04-02T14:45:44.494Z,48.14
2023-04-02T14:49:51.439Z,48.65
2023-04-02T14:54:01.197Z,48.40
2023-04-02T14:58:06.392Z,49.40
2023-04-02T15:02:17.861Z,49.64
2023-04-02T15:06:25.523Z,49.62
2023-04-02T15:10:31.486Z,49.47
2023-04-02T15:14:36.095Z,51.05
2023-04-02T15:18:38.576Z,51.87
2023-04-02T15:22:52.225Z,50.75
2023-04-02T15:27:00.119Z,50.78
2023-04-02T15:31:12.654Z,50.18
2023-04-02T15:35:23.829Z,49.13
2023-04-02T15:39:51.634Z,49.84
2023-04-02T15:44:00.157Z,49.78
2023-04-02T15:48:39.275Z,51.10
2023-04-02T15:52:54.180Z,51.78
2023-04-02T15:57:10.278Z,51.04
2023-04-02T16:01:19.636Z,50.10
2023-04-02T16:05:32.198Z,51.41
2023-04-02T16:09:45.944Z,51.87
2023-04-02T16:13:49.765Z,51.57
2023-04-02T16:17:59.383Z,51.51
2023-04-02T16:22:06.136Z,51.15
2023-04-02T16:26:22.026Z,52.12
2023-04-02T16:30:46.742Z,52.13
2023-04-02T16:35:12.956Z,51.42
2023-04-02T16:39:32.800Z,51.38
2023-04-02T16:43:44.161Z,51.32
2023-04-02T16:48:04.533Z,52.35
2023-04-02T16:52:23.612Z,51.41
2023-04-02T16:56:37.432Z,51.40
2023-04-02T17:00:47.102Z,51.94
2023-04-02T17:05:03.837Z,51.65
2023-04-02T17:09:15.451Z,51.62
2023-04-02T17:13:27.001Z,52.29
2023-04-02T17:17:29.570Z,52.77
2023-04-02T17:21:33.730Z,53.55
2023-04-02T17:25:40.662Z,54.25
2023-04-02T17:29:46.056Z,54.40
2023-04-02T17:33:48.576Z,54.53
2023-04-02T17:37:58.843Z,54.85
2023-04-02T17:42:11.064Z,55.56
2023-04-02T17:46:25.282Z,55.06
2023-04-02T17:50:46.058Z,55.43
2023-04-02T17:55:03.477Z,55.72
2023-04-02T17:59:21.689Z,55.97
2023-04-02T18:03:42.160Z,56.09
2023-04-02T18:07:54.169Z,56.30
2023-04-02T18:12:08.804Z,55.74
2023-04-02T18:16:44.121Z,55.18
2023-04-02T18:21:01.226Z,54.48
2023-04-02T18:25:28.796Z,54.86
2023-04-02T18:29:40.975Z,55.38
2023-04-02T18:34:07.050Z,54.94
2023-04-02T18:38:27.199Z,54.91
2023-04-02T18:42:44.717Z,55.56
2023-04-02T18:46:53.020Z,55.77
2023-04-02T18:50:55.767Z,55.92
2023-04-02T18:55:05.601Z,55.53
2023-04-02T18:59:22.657Z,55.62
2023-04-02T19:03:31.284Z,55.82
2023-04-02T19:07:40.238Z,55.76
2023-04-02T19:11:42.761Z,55.76
2023-04-02T19:15:59.013Z,55.82
2023-04-02T19:20:14.874Z,55.68
2023-04-02T19:24:31.382Z,56.14
2023-04-02T19:28:39.180Z,56.16
2023-04-02T19:32:52.136Z,56.11
2023-04-02T19:36:59.341Z,56.22
2023-04-02T19:41:08.115Z,56.38
2023-04-02T19:45:33.843Z,57.05
2023-04-02T19:49:38.295Z,56.34
2023-04-02T19:53:42.129Z,56.82
2023-04-02T19:57:44.648Z,57.11
2023-04-02T20:01:47.469Z,57.26
2023-04-02T20:05:50.423Z,57.90
2023-04-02T20:09:54.271Z,57.55
2023-04-02T20:13:56.743Z,57.47
2023-04-02T20:17:59.281Z,57.37
2023-04-02T20:22:01.829Z,57.48
2023-04-02T20:26:07.042Z,57.43
2023-04-02T20:30:10.062Z,57.86
2023-04-02T20:34:12.720Z,57.41
2023-04-02T20:38:15.624Z,57.86
2023-04-02T20:42:19.444Z,57.30
2023-04-02T20:46:22.799Z,57.54
2023-04-02T20:50:25.360Z,57.35
2023-04-02T20:54:27.859Z,57.84
2023-04-02T20:58:31.709Z,57.42
